Time;durP1;ratioP1;P1;durP2;ratioP2;P2;SDS_P1;SDS_P2;PMS_P1;PMS_P2;Temp;Humidity;BMP_temperature;BMP_pressure;BME280_temperature;BME280_humidity;BME280_pressure;Samples;Min_cycle;Max_cycle;Signal;HPM_P1;HPM_P2
2022/06/05 00:00:29;;;;;;;;;;;;;;;16.10;48.13;100844.47;5059371;28;1016;-60
2022/06/05 00:03:09;;;;;;;;;;;;;;;16.18;48.67;100841.19;5068147;28;1186;-59
2022/06/05 00:05:55;;;;;;;;;;;;;;;16.23;48.85;100826.69;5067679;28;1055;-59
2022/06/05 00:08:27;;;;;;;;;;;;;;;16.37;49.07;100833.31;5064468;28;1399;-61
2022/06/05 00:10:56;;;;;;;;;;;;;;;16.31;49.53;100828.88;5063784;28;1979;-61
2022/06/05 00:13:40;;;;;;;;;;;;;;;16.46;49.38;100830.03;5063606;28;985;-59
2022/06/05 00:16:05;;;;;;;;;;;;;;;16.50;49.59;100828.41;5066346;28;1044;-61
2022/06/05 00:18:31;;;;;;;;;;;;;;;16.54;49.60;100826.75;5070301;28;1084;-61
2022/06/05 00:20:57;;;;;;;;;;;;;;;16.52;49.78;100817.94;5062888;28;1024;-61
2022/06/05 00:23:22;;;;;;;;;;;;;;;16.56;49.83;100811.66;5060823;28;1000;-61
2022/06/05 00:25:47;;;;;;;;;;;;;;;16.65;49.96;100803.72;5061011;28;1225;-61
2022/06/05 00:28:25;;;;;;;;;;;;;;;16.65;49.94;100802.88;5069847;28;1063;-61
2022/06/05 00:30:53;;;;;;;;;;;;;;;16.66;50.05;100785.31;5069755;28;1983;-60
2022/06/05 00:33:31;;;;;;;;;;;;;;;16.68;49.88;100800.41;5054273;28;1187;-61
2022/06/05 00:35:56;;;;;;;;;;;;;;;16.68;50.12;100789.44;5071679;28;1174;-61
2022/06/05 00:38:25;;;;;;;;;;;;;;;16.67;49.39;100792.44;5063406;28;1020;-61
2022/06/05 00:41:09;;;;;;;;;;;;;;;16.62;49.03;100785.03;5065457;28;1259;-61
2022/06/05 00:43:35;;;;;;;;;;;;;;;16.50;48.23;100781.72;5071893;28;1078;-61
2022/06/05 00:46:00;;;;;;;;;;;;;;;16.36;48.11;100782.25;5064368;28;1127;-60
2022/06/05 00:48:26;;;;;;;;;;;;;;;16.30;47.29;100777.88;5070194;28;1071;-61
2022/06/05 00:50:51;;;;;;;;;;;;;;;16.28;46.75;100768.25;5070603;28;1909;-61
2022/06/05 00:53:17;;;;;;;;;;;;;;;16.15;46.88;100777.84;5061756;28;1131;-61
2022/06/05 00:55:43;;;;;;;;;;;;;;;16.10;46.35;100772.31;5077721;28;849;-61
2022/06/05 00:58:09;;;;;;;;;;;;;;;16.03;46.34;100770.66;5060975;28;1225;-61
2022/06/05 01:00:35;;;;;;;;;;;;;;;15.97;46.31;100774.47;5059162;28;1084;-61
2022/06/05 01:03:01;;;;;;;;;;;;;;;16.01;46.04;100774.78;5060339;28;1072;-61
2022/06/05 01:05:27;;;;;;;;;;;;;;;15.94;46.13;100769.53;5070860;28;977;-61
2022/06/05 01:07:52;;;;;;;;;;;;;;;15.94;46.02;100763.25;5067872;28;1047;-61
2022/06/05 01:10:18;;;;;;;;;;;;;;;15.83;46.18;100754.97;5068124;28;1914;-61
2022/06/05 01:12:43;;;;;;;;;;;;;;;15.80;45.88;100752.75;5063833;28;1019;-61
2022/06/05 01:15:13;;;;;;;;;;;;;;;15.88;45.86;100759.66;5062362;28;1137;-61
2022/06/05 01:17:40;;;;;;;;;;;;;;;15.77;45.89;100764.25;5061219;28;997;-61
2022/06/05 01:20:14;;;;;;;;;;;;;;;15.74;45.66;100760.13;5064006;28;1060;-61
2022/06/05 01:22:59;;;;;;;;;;;;;;;15.66;45.85;100757.88;5066430;28;1056;-61
2022/06/05 01:25:33;;;;;;;;;;;;;;;15.70;46.00;100749.97;5058985;28;1201;-60
2022/06/05 01:27:59;;;;;;;;;;;;;;;15.66;45.81;100748.84;5058705;28;1095;-60
2022/06/05 01:30:25;;;;;;;;;;;;;;;15.66;45.64;100749.66;5066486;28;1979;-61
2022/06/05 01:32:53;;;;;;;;;;;;;;;15.63;45.64;100746.66;5072660;28;997;-61
2022/06/05 01:35:39;;;;;;;;;;;;;;;15.67;45.57;100748.56;5068230;28;1213;-60
2022/06/05 01:38:14;;;;;;;;;;;;;;;15.51;45.83;100739.44;5062359;28;1016;-61
2022/06/05 01:40:45;;;;;;;;;;;;;;;15.56;45.56;100744.16;5045092;28;1120;-61
2022/06/05 01:43:11;;;;;;;;;;;;;;;15.54;45.68;100738.94;5044708;28;1021;-62
2022/06/05 01:45:51;;;;;;;;;;;;;;;15.51;46.03;100744.13;5064945;28;1135;-61
2022/06/05 01:48:24;;;;;;;;;;;;;;;15.65;46.63;100745.25;5050531;28;1020;-61
2022/06/05 01:50:51;;;;;;;;;;;;;;;15.89;47.22;100742.09;5052698;28;1917;-61
2022/06/05 01:53:20;;;;;;;;;;;;;;;16.05;47.94;100741.03;5045950;28;1219;-61
2022/06/05 01:55:52;;;;;;;;;;;;;;;16.13;48.42;100738.84;5042216;28;977;-60
2022/06/05 01:58:19;;;;;;;;;;;;;;;16.22;48.44;100737.25;5064220;28;1154;-60
2022/06/05 02:00:51;;;;;;;;;;;;;;;16.25;49.01;100745.72;5049111;28;1032;-61
2022/06/05 02:03:28;;;;;;;;;;;;;;;16.35;49.03;100749.59;5052315;28;1166;-61
2022/06/05 02:05:54;;;;;;;;;;;;;;;16.46;48.68;100748.50;5056196;28;1237;-61
2022/06/05 02:08:25;;;;;;;;;;;;;;;16.47;49.12;100749.34;5048116;28;977;-60
2022/06/05 02:10:50;;;;;;;;;;;;;;;16.48;49.10;100751.81;5067521;28;1914;-60
2022/06/05 02:13:17;;;;;;;;;;;;;;;16.51;49.39;100750.41;5065016;28;942;-62
2022/06/05 02:15:42;;;;;;;;;;;;;;;16.53;49.67;100745.50;5069035;28;1012;-62
2022/06/05 02:18:07;;;;;;;;;;;;;;;16.63;49.24;100747.41;5049821;28;1020;-61
2022/06/05 02:20:34;;;;;;;;;;;;;;;16.67;49.18;100754.00;5061547;28;1225;-61
2022/06/05 02:22:59;;;;;;;;;;;;;;;16.65;49.58;100747.97;5058583;28;1064;-61
2022/06/05 02:25:25;;;;;;;;;;;;;;;16.67;49.54;100743.03;5026322;28;981;-62
2022/06/05 02:27:51;;;;;;;;;;;;;;;16.70;49.36;100746.03;5057234;28;1044;-61
2022/06/05 02:30:16;;;;;;;;;;;;;;;16.77;49.35;100749.34;5063814;28;1913;-61
2022/06/05 02:32:45;;;;;;;;;;;;;;;16.81;49.02;100759.78;5069582;28;1158;-62
2022/06/05 02:35:33;;;;;;;;;;;;;;;16.81;49.08;100759.78;5061039;28;1000;-61
2022/06/05 02:38:05;;;;;;;;;;;;;;;16.77;48.87;100752.09;5067311;28;846;-60
2022/06/05 02:40:30;;;;;;;;;;;;;;;16.71;48.62;100755.94;5066665;28;1075;-60
2022/06/05 02:43:19;;;;;;;;;;;;;;;16.68;48.01;100764.72;5062631;28;1076;-61
2022/06/05 02:46:04;;;;;;;;;;;;;;;16.49;47.65;100753.44;5054227;28;1341;-62
2022/06/05 02:48:31;;;;;;;;;;;;;;;16.38;47.09;100755.38;5062456;28;1186;-61
2022/06/05 02:50:59;;;;;;;;;;;;;;;16.35;46.85;100757.81;5052629;28;1983;-61
2022/06/05 02:53:25;;;;;;;;;;;;;;;16.27;46.40;100766.59;5062180;28;1189;-61
2022/06/05 02:55:51;;;;;;;;;;;;;;;16.22;46.43;100760.00;5064381;28;953;-62
2022/06/05 02:58:16;;;;;;;;;;;;;;;16.15;46.05;100750.41;5073611;28;1178;-61
2022/06/05 03:03:27;;;;;;;;;;;;;;;16.05;46.12;100749.28;5060484;28;996;-61
2022/06/05 03:03:27;;;;;;;;;;;;;;;16.01;46.01;100739.94;5067751;28;926;-62
2022/06/05 03:05:52;;;;;;;;;;;;;;;16.02;45.87;100738.84;5065540;28;1028;-61
2022/06/05 03:08:18;;;;;;;;;;;;;;;16.06;45.49;100744.59;5061926;28;976;-61
2022/06/05 03:10:45;;;;;;;;;;;;;;;15.96;45.76;100739.91;5069193;28;1910;-63
2022/06/05 03:13:10;;;;;;;;;;;;;;;15.95;45.45;100749.25;5064649;28;1004;-65
2022/06/05 03:15:36;;;;;;;;;;;;;;;15.90;45.53;100751.97;5067892;28;1170;-65
2022/06/05 03:18:01;;;;;;;;;;;;;;;15.85;45.68;100738.22;5063661;28;1165;-63
2022/06/05 03:20:27;;;;;;;;;;;;;;;15.84;45.63;100740.16;5069616;28;1147;-63
2022/06/05 03:22:52;;;;;;;;;;;;;;;15.84;45.35;100742.09;5057585;28;1068;-66
2022/06/05 03:25:19;;;;;;;;;;;;;;;15.84;45.43;100739.34;5069207;28;1359;-63
2022/06/05 03:27:44;;;;;;;;;;;;;;;15.80;45.13;100738.25;5069952;28;850;-62
2022/06/05 03:30:10;;;;;;;;;;;;;;;15.69;45.34;100729.94;5068172;28;1901;-63
2022/06/05 03:32:35;;;;;;;;;;;;;;;15.72;45.34;100734.91;5068712;28;1019;-63
2022/06/05 03:35:01;;;;;;;;;;;;;;;15.77;45.37;100725.84;5069601;28;1063;-63
2022/06/05 03:37:27;;;;;;;;;;;;;;;15.67;45.52;100726.66;5069010;28;993;-62
2022/06/05 03:39:52;;;;;;;;;;;;;;;15.68;45.42;100725.56;5066917;28;1048;-63
2022/06/05 03:42:17;;;;;;;;;;;;;;;15.66;45.64;100727.72;5065469;28;1056;-62
2022/06/05 03:44:43;;;;;;;;;;;;;;;15.71;45.44;100726.91;5064443;28;1001;-63
2022/06/05 03:47:09;;;;;;;;;;;;;;;15.69;45.41;100724.44;5072823;28;878;-61
2022/06/05 03:49:34;;;;;;;;;;;;;;;15.69;45.63;100727.19;5071954;28;1909;-62
2022/06/05 03:52:00;;;;;;;;;;;;;;;15.61;45.42;100718.66;5071842;28;1066;-60
2022/06/05 03:54:26;;;;;;;;;;;;;;;15.57;45.55;100712.88;5069689;28;945;-62
2022/06/05 03:56:51;;;;;;;;;;;;;;;15.50;45.20;100720.53;5069517;28;1019;-64
2022/06/05 03:59:17;;;;;;;;;;;;;;;15.48;45.46;100712.59;5064306;28;1185;-62
2022/06/05 04:01:42;;;;;;;;;;;;;;;15.51;45.20;100709.31;5075044;28;972;-62
2022/06/05 04:04:07;;;;;;;;;;;;;;;15.49;45.62;100699.72;5061736;28;1221;-62
2022/06/05 04:06:33;;;;;;;;;;;;;;;15.43;45.64;100709.00;5072083;28;842;-60
2022/06/05 04:09:00;;;;;;;;;;;;;;;15.38;45.64;100710.63;5070131;28;1017;-59
2022/06/05 04:11:26;;;;;;;;;;;;;;;15.59;46.01;100699.75;5072719;28;1910;-59
2022/06/05 04:13:52;;;;;;;;;;;;;;;15.99;47.29;100702.91;5063868;28;996;-60
2022/06/05 04:16:21;;;;;;;;;;;;;;;16.26;48.78;100702.69;5070685;28;1241;-59
2022/06/05 04:18:46;;;;;;;;;;;;;;;16.69;49.81;100695.00;5072042;28;957;-60
2022/06/05 04:21:18;;;;;;;;;;;;;;;16.93;50.51;100686.19;5062236;28;1177;-60
2022/06/05 04:23:44;;;;;;;;;;;;;;;17.10;51.20;100688.63;5076774;28;1036;-61
2022/06/05 04:26:12;;;;;;;;;;;;;;;17.36;51.70;100689.34;5065952;28;1281;-61
2022/06/05 04:28:38;;;;;;;;;;;;;;;17.32;52.24;100679.19;5078589;28;1005;-61
2022/06/05 04:31:03;;;;;;;;;;;;;;;17.24;51.67;100686.09;5071272;28;1917;-61
2022/06/05 04:33:31;;;;;;;;;;;;;;;17.08;50.71;100680.66;5077273;28;1214;-60
2022/06/05 04:35:56;;;;;;;;;;;;;;;16.90;49.72;100681.22;5064263;28;984;-61
2022/06/05 04:38:22;;;;;;;;;;;;;;;16.80;49.08;100681.22;5067299;28;1151;-61
2022/06/05 04:40:47;;;;;;;;;;;;;;;16.64;48.34;100678.50;5062819;28;1127;-60
2022/06/05 04:43:13;;;;;;;;;;;;;;;16.48;47.49;100677.72;5063534;28;1008;-60
2022/06/05 04:45:39;;;;;;;;;;;;;;;16.36;47.11;100672.47;5062740;28;1001;-61
2022/06/05 04:48:04;;;;;;;;;;;;;;;16.28;46.85;100688.69;5074299;28;1008;-61
2022/06/05 04:50:30;;;;;;;;;;;;;;;16.13;46.51;100684.00;5073566;28;1993;-60
2022/06/05 04:52:55;;;;;;;;;;;;;;;16.18;46.01;100682.06;5069688;28;1068;-60
2022/06/05 04:55:21;;;;;;;;;;;;;;;16.15;45.59;100687.31;5062849;28;1020;-60
2022/06/05 04:57:46;;;;;;;;;;;;;;;16.03;45.79;100679.31;5069984;28;910;-59
2022/06/05 05:00:12;;;;;;;;;;;;;;;15.93;45.56;100682.06;5068193;28;1194;-59
2022/06/05 05:02:38;;;;;;;;;;;;;;;15.92;45.71;100678.47;5056494;28;1218;-59
2022/06/05 05:05:04;;;;;;;;;;;;;;;15.88;45.51;100677.41;5069489;28;992;-60
2022/06/05 05:07:29;;;;;;;;;;;;;;;15.78;45.43;100683.66;5068709;28;1432;-61
2022/06/05 05:09:55;;;;;;;;;;;;;;;15.77;45.17;100686.63;5070080;28;1905;-63
2022/06/05 05:12:20;;;;;;;;;;;;;;;15.79;45.03;100679.81;5070084;28;995;-61
2022/06/05 05:14:46;;;;;;;;;;;;;;;15.76;45.28;100683.06;5069111;28;1048;-62
2022/06/05 05:17:11;;;;;;;;;;;;;;;15.69;45.20;100683.31;5066678;28;1194;-61
2022/06/05 05:19:37;;;;;;;;;;;;;;;15.66;45.08;100683.88;5075677;28;1067;-62
2022/06/05 05:22:02;;;;;;;;;;;;;;;15.66;45.08;100683.06;5075350;28;1221;-60
2022/06/05 05:24:28;;;;;;;;;;;;;;;15.66;45.30;100678.38;5071059;28;1087;-61
2022/06/05 05:26:53;;;;;;;;;;;;;;;15.64;44.96;100680.59;5070975;28;1078;-61
2022/06/05 05:29:18;;;;;;;;;;;;;;;15.60;45.33;100689.59;5065612;28;1075;-62
2022/06/05 05:31:47;;;;;;;;;;;;;;;15.59;45.26;100686.03;5070369;28;1905;-60
2022/06/05 05:34:13;;;;;;;;;;;;;;;15.82;44.87;100689.44;5066757;28;1095;-60
2022/06/05 05:36:39;;;;;;;;;;;;;;;16.27;45.71;100693.34;5071300;28;1123;-60
2022/06/05 05:42:08;;;;;;;;;;;;;;;17.66;49.30;100690.31;5066433;28;1032;-62
2022/06/05 05:44:34;;;;;;;;;;;;;;;18.05;50.42;100697.81;5074550;28;1119;-62
2022/06/05 05:46:59;;;;;;;;;;;;;;;18.33;51.40;100691.81;5071679;28;1102;-60
2022/06/05 05:49:24;;;;;;;;;;;;;;;17.17;55.15;100697.38;5064150;28;1210;-60
2022/06/05 05:51:50;;;;;;;;;;;;;;;16.70;56.69;100691.13;5071736;28;1981;-59
2022/06/05 05:54:15;;;;;;;;;;;;;;;17.30;57.71;100687.72;5071014;28;984;-60
2022/06/05 05:56:41;;;;;;;;;;;;;;;18.30;54.83;100696.00;5069166;28;1214;-61
2022/06/05 05:59:06;;;;;;;;;;;;;;;18.39;54.89;100693.44;5069658;28;1289;-62
2022/06/05 06:01:32;;;;;;;;;;;;;;;18.36;55.52;100689.34;5070125;28;858;-61
2022/06/05 06:03:57;;;;;;;;;;;;;;;17.40;57.17;100690.44;5063060;28;1154;-61
2022/06/05 06:06:28;;;;;;;;;;;;;;;16.95;58.03;100686.72;5068346;28;919;-61
2022/06/05 06:08:53;;;;;;;;;;;;;;;16.86;60.60;100693.88;5056125;28;1135;-61
2022/06/05 06:11:19;;;;;;;;;;;;;;;17.61;59.05;100679.34;5067528;28;1973;-59
2022/06/05 06:13:44;;;;;;;;;;;;;;;17.53;59.17;100677.16;5067845;28;873;-59
2022/06/05 06:16:10;;;;;;;;;;;;;;;17.54;59.38;100679.63;5066625;28;1226;-59
2022/06/05 06:18:35;;;;;;;;;;;;;;;17.84;58.84;100690.75;5072408;28;1028;-59
2022/06/05 06:21:01;;;;;;;;;;;;;;;17.83;58.76;100683.63;5065811;28;1281;-60
2022/06/05 06:23:26;;;;;;;;;;;;;;;17.56;59.54;100687.63;5073419;28;1024;-59
2022/06/05 06:25:52;;;;;;;;;;;;;;;17.36;60.25;100672.03;5069335;28;1095;-60
2022/06/05 06:28:17;;;;;;;;;;;;;;;18.08;58.39;100683.47;5063324;28;1376;-60
2022/06/05 06:30:44;;;;;;;;;;;;;;;18.20;57.76;100680.38;5069141;28;2027;-61
2022/06/05 06:33:09;;;;;;;;;;;;;;;17.88;58.90;100672.56;5057404;28;988;-61
2022/06/05 06:35:35;;;;;;;;;;;;;;;17.71;59.47;100673.81;5044378;28;1067;-61
2022/06/05 06:38:00;;;;;;;;;;;;;;;17.90;59.00;100676.69;5068566;28;956;-59
2022/06/05 06:40:26;;;;;;;;;;;;;;;18.06;58.53;100682.97;5069366;28;1056;-59
2022/06/05 06:42:53;;;;;;;;;;;;;;;18.56;56.75;100682.81;5066100;28;1057;-62
2022/06/05 06:45:19;;;;;;;;;;;;;;;18.33;57.56;100676.16;5067973;28;1203;-63
2022/06/05 06:47:44;;;;;;;;;;;;;;;18.09;58.12;100670.53;5070040;28;1167;-61
2022/06/05 06:50:10;;;;;;;;;;;;;;;18.05;58.56;100683.25;5063973;28;1968;-61
2022/06/05 06:52:36;;;;;;;;;;;;;;;18.25;57.92;100674.81;5069220;28;1178;-62
2022/06/05 06:55:02;;;;;;;;;;;;;;;18.58;57.06;100677.84;5050657;28;1254;-62
2022/06/05 06:57:27;;;;;;;;;;;;;;;18.83;56.21;100675.97;5067869;28;1289;-63
2022/06/05 06:59:53;;;;;;;;;;;;;;;19.14;55.54;100676.47;5071198;28;1281;-59
2022/06/05 07:02:18;;;;;;;;;;;;;;;18.92;56.13;100678.94;5058269;28;1294;-62
2022/06/05 07:04:44;;;;;;;;;;;;;;;18.06;58.25;100674.72;5063230;28;1055;-60
2022/06/05 07:07:09;;;;;;;;;;;;;;;17.42;58.99;100671.72;5065781;28;1223;-60
2022/06/05 07:09:35;;;;;;;;;;;;;;;17.19;58.28;100666.88;5059676;28;1176;-58
2022/06/05 07:12:00;;;;;;;;;;;;;;;17.45;55.81;100681.34;5065106;28;1905;-60
2022/06/05 07:14:26;;;;;;;;;;;;;;;17.32;54.59;100662.69;5061142;28;1210;-60
2022/06/05 07:16:51;;;;;;;;;;;;;;;17.62;52.88;100662.56;5064725;28;1203;-58
2022/06/05 07:19:17;;;;;;;;;;;;;;;17.56;52.18;100668.38;5062492;28;1218;-60
2022/06/05 07:21:42;;;;;;;;;;;;;;;17.38;52.04;100667.09;5064908;28;1313;-61
2022/06/05 07:24:09;;;;;;;;;;;;;;;17.61;51.11;100662.84;5070816;28;956;-62
2022/06/05 07:26:34;;;;;;;;;;;;;;;17.42;50.89;100665.41;5070927;28;1111;-59
2022/06/05 07:29:00;;;;;;;;;;;;;;;17.45;50.57;100660.16;5055114;28;1048;-60
2022/06/05 07:31:27;;;;;;;;;;;;;;;17.20;51.37;100663.84;5066097;28;1968;-59
2022/06/05 07:33:53;;;;;;;;;;;;;;;17.31;50.58;100670.13;5073580;28;999;-59
2022/06/05 07:36:20;;;;;;;;;;;;;;;17.29;50.75;100661.34;5073817;28;1012;-59
2022/06/05 07:38:46;;;;;;;;;;;;;;;17.29;51.76;100666.81;5056156;28;1170;-59
2022/06/05 07:41:19;;;;;;;;;;;;;;;17.48;52.82;100649.72;5068373;28;961;-59
2022/06/05 07:43:44;;;;;;;;;;;;;;;17.52;53.82;100662.63;5069899;28;1000;-59
2022/06/05 07:46:10;;;;;;;;;;;;;;;17.83;54.09;100656.94;5061734;28;1020;-58
2022/06/05 07:48:35;;;;;;;;;;;;;;;17.78;55.14;100655.03;5065438;28;1083;-59
2022/06/05 07:56:29;;;;;;;;;;;;;;;18.17;55.26;100653.41;5066026;28;1190;-60
2022/06/05 07:58:55;;;;;;;;;;;;;;;17.80;56.64;100649.25;5066776;28;1316;-60
2022/06/05 08:01:20;;;;;;;;;;;;;;;17.42;58.01;100649.75;5063608;28;1290;-59
2022/06/05 08:03:45;;;;;;;;;;;;;;;17.84;57.06;100649.50;5069141;28;1217;-59
2022/06/05 08:06:11;;;;;;;;;;;;;;;18.34;56.00;100653.03;5065564;28;1219;-60
2022/06/05 08:08:36;;;;;;;;;;;;;;;18.08;56.92;100655.97;5070433;28;1273;-60
2022/06/05 08:11:05;;;;;;;;;;;;;;;17.97;57.26;100654.41;5067882;28;1979;-59
2022/06/05 08:13:30;;;;;;;;;;;;;;;17.93;57.59;100648.63;5064511;28;1293;-60
2022/06/05 08:15:56;;;;;;;;;;;;;;;18.06;57.49;100654.59;5064152;28;1343;-60
2022/06/05 08:18:21;;;;;;;;;;;;;;;18.24;56.91;100650.34;5066972;28;1296;-59
2022/06/05 08:20:48;;;;;;;;;;;;;;;18.34;56.78;100644.78;5068162;28;1347;-59
2022/06/05 08:23:13;;;;;;;;;;;;;;;18.44;56.54;100652.94;5065831;28;1254;-59
2022/06/05 08:25:39;;;;;;;;;;;;;;;18.53;56.15;100650.34;5065632;28;1389;-60
2022/06/05 08:28:04;;;;;;;;;;;;;;;18.61;56.32;100648.94;5067645;28;1237;-58
2022/06/05 08:30:30;;;;;;;;;;;;;;;18.68;55.75;100643.91;5066392;28;1988;-58
2022/06/05 08:32:55;;;;;;;;;;;;;;;18.52;54.48;100647.91;5068127;28;1211;-59
2022/06/05 08:35:20;;;;;;;;;;;;;;;18.09;52.58;100643.84;5069895;28;1182;-59
2022/06/05 08:43:23;;;;;;;;;;;;;;;17.79;45.76;100631.94;5058095;28;1151;-59
2022/06/05 08:46:02;;;;;;;;;;;;;;;17.66;44.16;100629.81;5065756;28;1214;-59
2022/06/05 08:48:29;;;;;;;;;;;;;;;17.58;43.53;100622.97;5049016;28;1106;-59
2022/06/05 08:50:56;;;;;;;;;;;;;;;17.47;43.27;100628.84;5071428;28;1918;-58
2022/06/05 08:53:22;;;;;;;;;;;;;;;17.22;42.90;100622.34;5071951;28;1103;-59
2022/06/05 08:55:49;;;;;;;;;;;;;;;17.33;42.26;100626.69;5068554;28;1051;-62
2022/06/05 08:58:18;;;;;;;;;;;;;;;17.21;42.65;100623.47;5050695;28;1282;-59
2022/06/05 09:00:45;;;;;;;;;;;;;;;17.51;43.89;100621.66;5070394;28;1095;-58
2022/06/05 09:03:11;;;;;;;;;;;;;;;17.54;46.31;100612.84;5072892;28;1277;-58
2022/06/05 09:05:38;;;;;;;;;;;;;;;17.82;47.87;100614.03;5071550;28;1067;-59
2022/06/05 09:08:04;;;;;;;;;;;;;;;17.99;49.20;100619.16;5050915;28;1068;-59
2022/06/05 09:10:34;;;;;;;;;;;;;;;18.03;50.62;100616.66;5068278;28;1918;-59
2022/06/05 09:13:00;;;;;;;;;;;;;;;17.95;51.85;100612.63;5071067;28;1127;-59
2022/06/05 09:15:26;;;;;;;;;;;;;;;18.07;52.11;100609.47;5069245;28;1156;-59
2022/06/05 09:17:55;;;;;;;;;;;;;;;18.10;52.53;100615.25;5064040;28;1237;-58
2022/06/05 09:20:23;;;;;;;;;;;;;;;18.05;53.19;100612.53;5069322;28;1001;-59
2022/06/05 09:22:57;;;;;;;;;;;;;;;18.20;53.28;100608.00;5068183;28;1024;-59
2022/06/05 09:25:43;;;;;;;;;;;;;;;18.05;54.00;100611.72;5066516;28;1020;-59
2022/06/05 09:28:28;;;;;;;;;;;;;;;18.46;53.28;100606.63;5066349;28;1210;-59
2022/06/05 09:30:55;;;;;;;;;;;;;;;18.27;54.15;100600.22;5070350;28;1905;-60
2022/06/05 09:33:21;;;;;;;;;;;;;;;17.93;54.65;100595.56;5049528;28;1306;-59
2022/06/05 09:36:00;;;;;;;;;;;;;;;17.55;54.67;100587.00;5068873;28;1304;-59
2022/06/05 09:38:31;;;;;;;;;;;;;;;17.34;53.70;100586.31;5051860;28;1212;-57
2022/06/05 09:41:16;;;;;;;;;;;;;;;17.65;50.97;100583.38;5052359;28;1319;-58
2022/06/05 09:43:47;;;;;;;;;;;;;;;17.92;48.92;100585.66;5067309;28;1163;-58
2022/06/05 09:46:31;;;;;;;;;;;;;;;18.04;48.38;100569.59;5069846;28;1262;-59
2022/06/05 09:49:16;;;;;;;;;;;;;;;17.91;48.01;100573.03;5062003;28;1182;-58
2022/06/05 09:51:43;;;;;;;;;;;;;;;17.48;48.67;100564.50;5070110;28;1982;-60
2022/06/05 09:54:28;;;;;;;;;;;;;;;17.49;48.15;100574.38;5070479;28;1178;-60
2022/06/05 09:59:49;;;;;;;;;;;;;;;17.66;47.12;100558.31;5058160;28;1041;-59
2022/06/05 10:02:15;;;;;;;;;;;;;;;17.73;46.67;100555.25;5050569;28;1226;-59
2022/06/05 10:04:41;;;;;;;;;;;;;;;17.82;46.47;100563.72;5069147;28;1069;-59
2022/06/05 10:07:13;;;;;;;;;;;;;;;17.50;46.91;100556.78;5051573;28;1305;-59
2022/06/05 10:09:42;;;;;;;;;;;;;;;17.55;46.66;100554.81;5051124;28;1107;-59
2022/06/05 10:12:13;;;;;;;;;;;;;;;17.48;46.87;100559.00;5049844;28;1958;-59
2022/06/05 10:14:51;;;;;;;;;;;;;;;17.60;46.74;100564.97;5050753;28;1100;-60
2022/06/05 10:17:35;;;;;;;;;;;;;;;17.72;46.19;100559.09;5071905;28;1233;-59
2022/06/05 10:20:04;;;;;;;;;;;;;;;17.62;46.62;100574.56;5065459;28;1251;-59
2022/06/05 10:22:35;;;;;;;;;;;;;;;17.38;47.02;100571.69;5068050;28;1186;-59
2022/06/05 10:25:01;;;;;;;;;;;;;;;17.57;46.57;100565.53;5070475;28;1199;-60
2022/06/05 10:27:26;;;;;;;;;;;;;;;17.71;46.22;100563.81;5067219;28;1202;-59
2022/06/05 10:29:55;;;;;;;;;;;;;;;17.64;46.39;100573.47;5067597;28;1992;-60
2022/06/05 10:32:24;;;;;;;;;;;;;;;17.45;46.48;100569.44;5067756;28;984;-58
2022/06/05 10:34:56;;;;;;;;;;;;;;;17.57;46.19;100565.53;5051544;28;1293;-58
2022/06/05 10:37:23;;;;;;;;;;;;;;;17.65;46.17;100573.19;5071597;28;1273;-58
2022/06/05 10:39:48;;;;;;;;;;;;;;;17.52;46.19;100571.09;5047874;28;1203;-59
2022/06/05 10:42:20;;;;;;;;;;;;;;;17.48;46.57;100578.25;5066917;28;1241;-60
2022/06/05 10:44:49;;;;;;;;;;;;;;;17.51;46.66;100592.22;5050596;28;1214;-59
2022/06/05 10:47:20;;;;;;;;;;;;;;;17.58;46.54;100595.47;5066252;28;1194;-59
2022/06/05 10:49:57;;;;;;;;;;;;;;;17.41;46.53;100597.81;5047649;28;1898;-59
2022/06/05 10:52:26;;;;;;;;;;;;;;;17.20;46.94;100597.91;5062372;28;1120;-59
2022/06/05 10:55:10;;;;;;;;;;;;;;;17.28;46.87;100582.75;5071227;28;1099;-59
2022/06/05 10:57:36;;;;;;;;;;;;;;;17.22;46.80;100592.97;5067004;28;1158;-59
2022/06/05 11:00:06;;;;;;;;;;;;;;;17.42;47.56;100591.22;5048477;28;1152;-60
2022/06/05 11:02:51;;;;;;;;;;;;;;;17.46;50.11;100595.03;5049316;28;1444;-59
2022/06/05 11:05:34;;;;;;;;;;;;;;;17.74;53.17;100595.38;5074799;28;1044;-59
2022/06/05 11:07:59;;;;;;;;;;;;;;;18.04;54.98;100583.34;5067726;28;1052;-59
2022/06/05 11:13:39;;;;;;;;;;;;;;;17.69;57.72;100581.69;5062961;28;1901;-59
2022/06/05 11:16:06;;;;;;;;;;;;;;;17.72;60.75;100581.91;5048684;28;1016;-59
2022/06/05 11:18:52;;;;;;;;;;;;;;;17.83;61.06;100571.66;5055365;28;844;-59
2022/06/05 11:21:17;;;;;;;;;;;;;;;17.62;62.25;100565.50;5059711;28;1757;-58
2022/06/05 11:23:44;;;;;;;;;;;;;;;17.55;63.36;100565.00;5039483;28;1076;-61
2022/06/05 11:26:14;;;;;;;;;;;;;;;18.05;61.91;100563.00;5045767;28;1191;-59
2022/06/05 11:28:39;;;;;;;;;;;;;;;18.30;61.45;100558.38;5050802;28;1095;-59
2022/06/05 11:31:18;;;;;;;;;;;;;;;18.02;62.36;100555.31;5064451;28;1886;-59
2022/06/05 11:33:47;;;;;;;;;;;;;;;17.87;63.38;100544.44;5042935;28;1420;-59
2022/06/05 11:36:21;;;;;;;;;;;;;;;18.13;62.58;100551.38;5039114;28;1139;-59
2022/06/05 11:39:02;;;;;;;;;;;;;;;18.50;61.30;100548.25;5065222;28;1052;-59
2022/06/05 11:41:28;;;;;;;;;;;;;;;17.81;62.12;100545.56;5067810;28;976;-59
2022/06/05 11:44:11;;;;;;;;;;;;;;;17.39;61.67;100550.53;5063412;28;1020;-59
2022/06/05 11:46:46;;;;;;;;;;;;;;;17.32;62.33;100558.25;5070220;28;1084;-59
2022/06/05 11:49:12;;;;;;;;;;;;;;;17.86;63.88;100557.34;5066956;28;1418;-59
2022/06/05 11:52:00;;;;;;;;;;;;;;;18.10;62.63;100565.72;5064975;28;1976;-60
2022/06/05 11:54:28;;;;;;;;;;;;;;;17.90;62.93;100571.34;5047945;28;1208;-58
2022/06/05 11:57:03;;;;;;;;;;;;;;;17.61;63.80;100567.44;5062350;28;1108;-62
2022/06/05 11:59:39;;;;;;;;;;;;;;;17.70;63.39;100577.84;5059170;28;1180;-60
2022/06/05 12:02:27;;;;;;;;;;;;;;;18.09;62.24;100565.97;5030651;28;1219;-61
2022/06/05 12:04:57;;;;;;;;;;;;;;;17.89;62.62;100553.19;5068346;28;953;-59
2022/06/05 12:07:23;;;;;;;;;;;;;;;17.85;62.78;100547.47;5050497;28;985;-59
2022/06/05 12:09:49;;;;;;;;;;;;;;;18.07;61.93;100541.50;5064196;28;1905;-60
2022/06/05 12:12:20;;;;;;;;;;;;;;;17.92;62.03;100533.38;5068108;28;1277;-60
2022/06/05 12:14:49;;;;;;;;;;;;;;;17.69;62.73;100544.00;5067763;28;1119;-59
2022/06/05 12:17:16;;;;;;;;;;;;;;;17.39;63.72;100551.38;5065225;28;1134;-59
2022/06/05 12:19:51;;;;;;;;;;;;;;;17.61;63.40;100544.59;5049614;28;1420;-59
2022/06/05 12:22:23;;;;;;;;;;;;;;;18.05;61.76;100549.25;5065565;28;1216;-59
2022/06/05 12:24:51;;;;;;;;;;;;;;;17.82;62.46;100550.78;5077843;28;1205;-59
2022/06/05 12:27:17;;;;;;;;;;;;;;;17.65;62.93;100550.38;5060560;28;1171;-59
2022/06/05 12:29:44;;;;;;;;;;;;;;;17.83;62.39;100559.84;5068778;28;973;-59
2022/06/05 12:32:12;;;;;;;;;;;;;;;17.94;61.74;100551.25;5072061;28;1910;-59
2022/06/05 12:34:37;;;;;;;;;;;;;;;17.76;62.34;100554.69;5047398;28;1068;-59
2022/06/05 12:37:22;;;;;;;;;;;;;;;17.75;62.60;100540.13;5067000;28;988;-61
2022/06/05 12:39:48;;;;;;;;;;;;;;;17.77;62.61;100537.88;5044155;28;1091;-60
2022/06/05 12:42:21;;;;;;;;;;;;;;;18.05;61.70;100543.75;5072856;28;1096;-60
2022/06/05 12:44:47;;;;;;;;;;;;;;;18.05;61.30;100535.47;5072568;28;1233;-61
2022/06/05 12:47:12;;;;;;;;;;;;;;;17.84;62.02;100528.47;5069550;28;1043;-61
2022/06/05 12:49:38;;;;;;;;;;;;;;;17.76;62.50;100528.00;5069459;28;1389;-61
2022/06/05 12:52:22;;;;;;;;;;;;;;;17.59;62.91;100524.84;5071600;28;1901;-60
2022/06/05 12:55:00;;;;;;;;;;;;;;;17.62;63.02;100525.06;5069578;28;1278;-59
2022/06/05 12:57:28;;;;;;;;;;;;;;;17.97;61.53;100521.53;5055107;28;1250;-60
2022/06/05 12:59:57;;;;;;;;;;;;;;;17.85;62.09;100502.63;5049670;28;1313;-60
2022/06/05 13:02:31;;;;;;;;;;;;;;;18.04;61.51;100506.31;5054090;28;1180;-61
2022/06/05 13:04:59;;;;;;;;;;;;;;;17.94;61.93;100500.94;5051001;28;996;-61
2022/06/05 13:07:28;;;;;;;;;;;;;;;17.74;62.42;100491.72;5045613;28;1194;-61
2022/06/05 13:10:00;;;;;;;;;;;;;;;18.04;61.57;100489.81;5068062;28;2381;-61
2022/06/05 13:12:43;;;;;;;;;;;;;;;18.27;60.79;100493.72;5062376;28;1008;-61
2022/06/05 13:15:21;;;;;;;;;;;;;;;17.84;61.96;100487.22;5071995;28;1212;-60